sensor_id;sensor_type;location;lat;lon;timestamp;P1;durP1;ratioP1;P2;durP2;ratioP2
22201;SDS011;11266;51.522;6.302;2024-01-30T22:27:51;18.25;;;11.90;;
22201;SDS011;11266;51.522;6.302;2024-01-30T22:28:37;15.88;;;12.25;;
22201;SDS011;11266;51.522;6.302;2024-01-30T22:29:22;15.68;;;12.45;;
22201;SDS011;11266;51.522;6.302;2024-01-30T22:30:08;16.13;;;11.55;;
22201;SDS011;11266;51.522;6.302;2024-01-30T22:30:54;14.38;;;11.55;;
22201;SDS011;11266;51.522;6.302;2024-01-30T22:31:39;15.98;;;11.55;;
22201;SDS011;11266;51.522;6.302;2024-01-30T22:32:25;16.95;;;11.82;;
22201;SDS011;11266;51.522;6.302;2024-01-30T22:33:11;17.88;;;12.05;;
22201;SDS011;11266;51.522;6.302;2024-01-30T22:33:56;13.60;;;10.90;;
22201;SDS011;11266;51.522;6.302;2024-01-30T22:34:42;13.80;;;10.35;;
22201;SDS011;11266;51.522;6.302;2024-01-30T22:35:27;15.13;;;11.10;;
22201;SDS011;11266;51.522;6.302;2024-01-30T22:36:13;14.20;;;10.73;;
22201;SDS011;11266;51.522;6.302;2024-01-30T22:36:59;16.38;;;10.18;;
22201;SDS011;11266;51.522;6.302;2024-01-30T22:37:44;12.98;;;10.00;;
22201;SDS011;11266;51.522;6.302;2024-01-30T22:38:30;14.80;;;9.65;;
22201;SDS011;11266;51.522;6.302;2024-01-30T22:39:16;21.77;;;11.48;;
22201;SDS011;11266;51.522;6.302;2024-01-30T22:40:02;14.55;;;10.20;;
22201;SDS011;11266;51.522;6.302;2024-01-30T22:40:48;15.80;;;10.48;;
22201;SDS011;11266;51.522;6.302;2024-01-30T22:41:34;13.75;;;9.40;;
22201;SDS011;11266;51.522;6.302;2024-01-30T22:42:19;13.70;;;10.05;;
22201;SDS011;11266;51.522;6.302;2024-01-30T22:43:05;12.40;;;9.13;;
22201;SDS011;11266;51.522;6.302;2024-01-30T22:43:50;11.95;;;9.75;;
22201;SDS011;11266;51.522;6.302;2024-01-30T22:44:36;13.68;;;9.18;;
22201;SDS011;11266;51.522;6.302;2024-01-30T22:45:22;13.85;;;9.75;;
22201;SDS011;11266;51.522;6.302;2024-01-30T22:46:08;13.82;;;8.73;;
22201;SDS011;11266;51.522;6.302;2024-01-30T22:46:53;12.45;;;8.52;;
22201;SDS011;11266;51.522;6.302;2024-01-30T22:47:39;11.75;;;9.15;;
22201;SDS011;11266;51.522;6.302;2024-01-30T22:48:24;14.82;;;9.68;;
22201;SDS011;11266;51.522;6.302;2024-01-30T22:49:10;14.85;;;9.48;;
22201;SDS011;11266;51.522;6.302;2024-01-30T22:49:56;14.18;;;9.25;;
22201;SDS011;11266;51.522;6.302;2024-01-30T22:50:41;12.55;;;9.20;;
22201;SDS011;11266;51.522;6.302;2024-01-30T22:51:27;13.93;;;8.07;;
22201;SDS011;11266;51.522;6.302;2024-01-30T22:52:13;10.90;;;8.35;;
22201;SDS011;11266;51.522;6.302;2024-01-30T22:52:59;12.07;;;8.18;;
22201;SDS011;11266;51.522;6.302;2024-01-30T22:53:45;14.02;;;8.07;;
22201;SDS011;11266;51.522;6.302;2024-01-30T22:54:32;15.38;;;7.88;;
22201;SDS011;11266;51.522;6.302;2024-01-30T22:55:18;12.05;;;8.63;;
22201;SDS011;11266;51.522;6.302;2024-01-30T22:56:04;13.00;;;8.30;;
22201;SDS011;11266;51.522;6.302;2024-01-30T22:56:49;12.05;;;8.60;;
22201;SDS011;11266;51.522;6.302;2024-01-30T22:57:35;10.48;;;7.72;;
22201;SDS011;11266;51.522;6.302;2024-01-30T22:58:22;10.07;;;7.25;;
22201;SDS011;11266;51.522;6.302;2024-01-30T22:59:08;11.02;;;7.55;;
22201;SDS011;11266;51.522;6.302;2024-01-30T22:59:53;12.10;;;7.65;;
22201;SDS011;11266;51.522;6.302;2024-01-30T23:00:39;15.30;;;8.65;;
22201;SDS011;11266;51.522;6.302;2024-01-30T23:01:26;11.02;;;7.75;;
22201;SDS011;11266;51.522;6.302;2024-01-30T23:02:12;10.23;;;8.18;;
22201;SDS011;11266;51.522;6.302;2024-01-30T23:02:57;12.65;;;7.50;;
22201;SDS011;11266;51.522;6.302;2024-01-30T23:03:43;11.75;;;7.97;;
22201;SDS011;11266;51.522;6.302;2024-01-30T23:04:29;11.02;;;7.63;;
22201;SDS011;11266;51.522;6.302;2024-01-30T23:05:14;15.50;;;8.52;;
22201;SDS011;11266;51.522;6.302;2024-01-30T23:06:00;15.70;;;7.97;;
22201;SDS011;11266;51.522;6.302;2024-01-30T23:06:46;15.93;;;7.57;;
22201;SDS011;11266;51.522;6.302;2024-01-30T23:07:31;11.93;;;7.50;;
22201;SDS011;11266;51.522;6.302;2024-01-30T23:08:20;10.80;;;6.63;;
22201;SDS011;11266;51.522;6.302;2024-01-30T23:09:06;10.88;;;6.72;;
22201;SDS011;11266;51.522;6.302;2024-01-30T23:09:52;17.63;;;7.20;;
22201;SDS011;11266;51.522;6.302;2024-01-30T23:10:37;9.48;;;6.78;;
22201;SDS011;11266;51.522;6.302;2024-01-30T23:11:23;16.35;;;7.60;;
22201;SDS011;11266;51.522;6.302;2024-01-30T23:12:08;12.98;;;6.50;;
22201;SDS011;11266;51.522;6.302;2024-01-30T23:12:54;9.27;;;6.43;;
22201;SDS011;11266;51.522;6.302;2024-01-30T23:13:40;12.30;;;6.40;;
22201;SDS011;11266;51.522;6.302;2024-01-30T23:14:26;10.82;;;6.13;;
22201;SDS011;11266;51.522;6.302;2024-01-30T23:15:11;10.93;;;6.22;;
22201;SDS011;11266;51.522;6.302;2024-01-30T23:15:57;9.30;;;5.32;;
22201;SDS011;11266;51.522;6.302;2024-01-30T23:16:42;13.50;;;7.10;;
22201;SDS011;11266;51.522;6.302;2024-01-30T23:17:28;10.50;;;6.43;;
22201;SDS011;11266;51.522;6.302;2024-01-30T23:18:15;10.65;;;5.72;;
22201;SDS011;11266;51.522;6.302;2024-01-30T23:19:00;10.48;;;5.13;;
22201;SDS011;11266;51.522;6.302;2024-01-30T23:19:46;12.25;;;6.88;;
22201;SDS011;11266;51.522;6.302;2024-01-30T23:20:31;15.02;;;6.40;;
22201;SDS011;11266;51.522;6.302;2024-01-30T23:21:17;9.27;;;6.32;;
22201;SDS011;11266;51.522;6.302;2024-01-30T23:22:04;9.80;;;5.80;;
22201;SDS011;11266;51.522;6.302;2024-01-30T23:22:49;10.07;;;5.70;;
22201;SDS011;11266;51.522;6.302;2024-01-30T23:23:35;10.07;;;5.93;;
22201;SDS011;11266;51.522;6.302;2024-01-30T23:24:20;9.65;;;5.28;;
22201;SDS011;11266;51.522;6.302;2024-01-30T23:25:06;12.93;;;5.82;;
22201;SDS011;11266;51.522;6.302;2024-01-30T23:25:52;9.32;;;6.35;;
22201;SDS011;11266;51.522;6.302;2024-01-30T23:26:40;10.05;;;5.68;;
22201;SDS011;11266;51.522;6.302;2024-01-30T23:27:26;10.23;;;5.63;;
22201;SDS011;11266;51.522;6.302;2024-01-30T23:28:12;7.80;;;5.45;;
22201;SDS011;11266;51.522;6.302;2024-01-30T23:28:57;8.55;;;5.78;;
22201;SDS011;11266;51.522;6.302;2024-01-30T23:29:43;14.98;;;6.15;;
22201;SDS011;11266;51.522;6.302;2024-01-30T23:30:29;10.50;;;5.45;;
22201;SDS011;11266;51.522;6.302;2024-01-30T23:31:14;11.88;;;5.40;;
22201;SDS011;11266;51.522;6.302;2024-01-30T23:32:00;13.43;;;5.90;;
22201;SDS011;11266;51.522;6.302;2024-01-30T23:32:46;10.40;;;5.82;;
22201;SDS011;11266;51.522;6.302;2024-01-30T23:33:32;12.95;;;5.35;;
22201;SDS011;11266;51.522;6.302;2024-01-30T23:34:18;9.10;;;4.95;;
22201;SDS011;11266;51.522;6.302;2024-01-30T23:35:04;8.88;;;5.45;;
22201;SDS011;11266;51.522;6.302;2024-01-30T23:35:50;11.65;;;5.50;;
22201;SDS011;11266;51.522;6.302;2024-01-30T23:36:38;12.77;;;5.45;;
22201;SDS011;11266;51.522;6.302;2024-01-30T23:37:26;12.55;;;5.68;;
22201;SDS011;11266;51.522;6.302;2024-01-30T23:38:11;10.35;;;5.10;;
22201;SDS011;11266;51.522;6.302;2024-01-30T23:38:57;15.07;;;5.38;;
22201;SDS011;11266;51.522;6.302;2024-01-30T23:39:43;10.88;;;5.03;;
22201;SDS011;11266;51.522;6.302;2024-01-30T23:40:29;8.65;;;5.13;;
22201;SDS011;11266;51.522;6.302;2024-01-30T23:41:15;11.05;;;5.07;;
22201;SDS011;11266;51.522;6.302;2024-01-30T23:42:01;9.80;;;5.10;;
22201;SDS011;11266;51.522;6.302;2024-01-30T23:42:46;9.48;;;4.82;;
22201;SDS011;11266;51.522;6.302;2024-01-30T23:43:32;7.75;;;4.72;;
22201;SDS011;11266;51.522;6.302;2024-01-30T23:44:18;12.55;;;5.22;;
22201;SDS011;11266;51.522;6.302;2024-01-30T23:45:04;10.05;;;4.80;;
22201;SDS011;11266;51.522;6.302;2024-01-30T23:45:50;9.30;;;4.72;;
22201;SDS011;11266;51.522;6.302;2024-01-30T23:46:36;10.93;;;4.82;;
22201;SDS011;11266;51.522;6.302;2024-01-30T23:47:22;11.32;;;5.20;;
22201;SDS011;11266;51.522;6.302;2024-01-30T23:48:10;12.40;;;5.40;;
22201;SDS011;11266;51.522;6.302;2024-01-30T23:48:56;13.30;;;5.38;;
22201;SDS011;11266;51.522;6.302;2024-01-30T23:49:41;6.53;;;4.20;;
22201;SDS011;11266;51.522;6.302;2024-01-30T23:50:27;7.43;;;4.50;;
22201;SDS011;11266;51.522;6.302;2024-01-30T23:51:13;9.60;;;4.32;;
22201;SDS011;11266;51.522;6.302;2024-01-30T23:51:58;9.48;;;5.60;;
22201;SDS011;11266;51.522;6.302;2024-01-30T23:52:44;13.25;;;4.50;;
22201;SDS011;11266;51.522;6.302;2024-01-30T23:53:34;10.10;;;4.53;;
22201;SDS011;11266;51.522;6.302;2024-01-30T23:54:19;10.02;;;5.22;;
22201;SDS011;11266;51.522;6.302;2024-01-30T23:55:05;10.30;;;4.65;;
22201;SDS011;11266;51.522;6.302;2024-01-30T23:55:51;14.73;;;4.85;;
22201;SDS011;11266;51.522;6.302;2024-01-30T23:56:40;9.25;;;4.38;;
22201;SDS011;11266;51.522;6.302;2024-01-30T23:57:26;12.25;;;4.68;;
22201;SDS011;11266;51.522;6.302;2024-01-30T23:58:12;14.13;;;4.40;;
22201;SDS011;11266;51.522;6.302;2024-01-30T23:58:57;12.98;;;5.18;;
22201;SDS011;11266;51.522;6.302;2024-01-30T23:59:43;11.20;;;4.00;;
